Terminal Aerodrome Forecast
Issued by NWS Albany, NY

Home | Current Version | Previous Version | Text Only | Print | Product List | Glossary On
Versions: 1 2 3 4 5 6 7 8 9 10 11 12 13 14 15 16 17 18 19
871
FTUS41 KALY 221120
TAFGFL
TAF
KGFL 221120Z 2212/2312 18005KT P6SM VCSH OVC100
     FM221400 17004KT P6SM -RA OVC050
     FM221700 16007KT 5SM -RA BR OVC025 WS020/18030KT
     FM222200 18006KT 3SM BR VCSH SCT008 OVC015=

USA.gov is the U.S. government's official web portal to all federal, state and local government web resources and services.